Weather at Flugplatz Biel-Kappelen

Public forecast

Using degrees Celsius for public forecast. Weather courtesy of forecast.io.

Closest aviation weather report (METAR) to Flugplatz Biel-Kappelen

Closest report is Grenchen Airport, 7.6 nm (14.1 km) NE. Retrieved 2021/07/29 23:20 UTC (31 minutes ago):

LSZG 292320Z AUTO 10002KT CAVOK 16/16 Q1015

Closest aviation forecast (TAF) to Flugplatz Biel-Kappelen

Forecast is more than 6 hours old.

Closest forecast is Payerne Air Base, 21.3 nm (39.5 km) SW. Retrieved 2021/07/29 17:00 UTC (7 hours ago):

TAF LSMP 291625Z 2917/3023 25005KT CAVOK BECMG 3001/3003 9999 BKN060 TEMPO 3012/3023 SHRA SCT050TCU PROB40 TEMPO 3014/3018 22015G25KT TSRA SCT050CB